Select your language:
100 km durch den Süden des Ruhrgebiets   Online Marketing Agentur sucht Gipfelstürmer   Andorra Ultra Trail  
  AK:   Land:   Ø Geschw.:   AK-Wertung:   
Datum: 25.-26.02.2017 Send Link
Veranstaltung: Transgrancanaria advanced 82 km (ESP) Mehr Details zum Lauf.
Strecke: 82km Landschaftslauf/Trail Ewige Bestenliste dieser Veranstaltung.
Finisher: 440 (367 M, 73 W) Mehrfach-Finisher.
Bestenlisten-tauglich: Nein
Ergebnisliste von: By email from race official timing partner
Erfassung durch: Marcello Spreafico     03.03.2017 22:32
 
440 Suchergebnisse
Gesamt- Rang Leistung Nachname, Vorname Verein Nat. Jg. M/W Rang M/W AK AK Rang Ø Geschw. km/h alters- korrigierte Leistung
1 7:53:29 h   Chaigneau, Sebastien   FRA  1972 M 1 M45  1 10.391 7:22:43 h
2 7:59:16 h   Fumo, Helio Samuel   POR  1983 M 2 M23  1 10.266 7:57:59 h
3 8:03:19 h   Haines, Hector *Stockholm   GBR  1989 M 3 M23  2 10.180 8:03:19 h
4 8:10:30 h   van Noorden, Huub *Sheer Abtskerke   NED  1988 M 4 M23  3 10.031 8:10:30 h
5 8:11:20 h   Santana Garcia, Daniel Club Arista   ESP  1988 M 5 M23  4 10.014 8:11:20 h
6 8:14:42 h   Fallas, Andrew Carnethy Hill Racing Club   GBR  1979 M 6 M35  1 9.945 8:08:52 h
7 8:19:36 h   Lopez, Joaquin WAA Team   ECU  1992 M 7 M23  5 9.848 8:19:36 h
8 8:21:49 h   Jones, Michael   GBR  1989 M 8 M23  6 9.804 8:21:49 h
9 8:22:20 h   Leon Medina, Jose Manuel Tenerife Trail   ESP  1970 M 9 M45  2 9.794 7:41:54 h
10 8:41:07 h   Cavallo, Giuliano Team Salomon Isostad I...   ITA  1974 M 10 M40  1 9.441 8:19:27 h
11 8:44:09 h   Montagny, Sylvain Team Vibram   FRA  1980 M 11 M35  2 9.387 8:39:58 h
12 8:51:39 h   Fraile Jimenez, Jesus Team Segurartic Catalana   ESP  1973 M 12 M40  2 9.254 8:25:24 h
13 8:52:48 h   Giblin, Paul Compressport / Pyllon   GBR  1977 M 13 M35  3 9.234 8:41:18 h
14 9:07:47 h   Gonzalez Cano, Miguel Angel Empower BY Privylife /...   ESP  1980 M 14 M35  4 8.982 9:03:25 h
15 9:09:35 h   Ferrari, Aubin Cesni Team Trail   FRA  1997 M 15 MU23  1 8.952 9:09:35 h
16 9:15:50 h   Arnoldsen, Peter Bergenløpeclub   NOR  1978 M 16 M35  5 8.852 9:03:50 h
17 9:22:50 h   Borlenghi, Federico Marathon Cremona   ITA  1977 M 17 M35  6 8.741 9:10:41 h
18 9:29:08 h   Douvry, Damien WAA Team   FRA  1980 M 18 M35  7 8.645 9:24:35 h
19 9:30:06 h   Viera Caballo, Carlos Enrique CD Tagara Trail   ESP  1981 M 19 M35  8 8.630 9:27:15 h
20 9:31:21 h   Sonoga, Zachary *South Lake Tahoe   USA  1989 M 20 M23  7 8.611 9:31:21 h
21 9:35:11 h   Soto Jerez, Zebenzui Podenco Trail   ESP  1981 M 21 M35  9 8.554 9:32:19 h
22 9:35:46 h   Konring, Anders FIF Hillerod   DEN  1987 M 22 M23  8 8.545 9:35:46 h
23 9:38:23 h   Rodriguez Castro, Alberto CD Arista   ESP  1973 M 23 M40  3 8.506 9:09:49 h
24 9:41:55 h   Nimes Perez, Teresa Espuña Trail   ESP  1980 W 1 W35  1 8.455 9:35:42 h
25 9:48:39 h   Bak, Roman Generali Patriot Team ...   SVK  1986 M 24 M23  9 8.358 9:48:39 h
26 9:48:49 h   Queval, Charles-Hubert *Calais   FRA  1986 M 25 M23  10 8.356 9:48:49 h
27 9:48:54 h   Adrian, Irimiea   ROU  1986 M 26 M23  11 8.355 9:48:54 h
28 9:49:19 h   Möllare, Jonas *Stockholm   SWE  1968 M 27 M45  3 8.349 8:57:17 h
29 9:53:41 h   Gonzalez Martin, Sandro C.D. Adrar 7 Raid   ESP  1980 M 28 M35  10 8.287 9:48:57 h
30 9:59:14 h   Pena Suarez, Jose Guzman Gallotia   ESP  1978 M 29 M35  11 8.210 9:49:28 h
31 10:01:58 h   Miglioli, Marta Vivo ASD   ITA  1983 W 2 W23  1 8.173 9:59:09 h
32 10:02:24 h   de la Nuez Hernandez, Joaquin Clumonfir   ESP  1976 M 30 M40  4 8.167 9:45:51 h
33 10:05:23 h   Fiz, Stefano Cd35600   ITA  1973 M 31 M40  5 8.127 9:35:29 h
34 10:06:00 h   Sanchez Duran, Maximo *Medellin   ESP  1983 M 32 M23  12 8.119 10:05:21 h
35 10:08:25 h   Bonsor, Helen Mammut   GBR  1985 W 3 W23  2 8.087 10:08:18 h
36 10:16:15 h   Rocha, Nuno Natural Force Trail Team   POR  1976 M 33 M40  6 7.984 9:59:19 h
37 10:18:08 h   Delgado Armas, Ivan Eladio Punta Brava Runners   ESP  1980 M 34 M35  12 7.959 10:13:12 h
38 10:23:15 h   Osipovs, Svjatoslavs Life IN Trainers   LAT  1984 M 35 M23  13 7.894 10:22:34 h
39 10:23:52 h   Desborough, Dudley Serpentine   GBR  1975 M 36 M40  7 7.886 9:57:55 h
40 10:26:58 h   Gonzalez Navarro, Jose Arista   ESP  1968 M 37 M45  4 7.847 9:31:37 h
41 10:27:02 h   Navarro, Julien Team Uglow-Optisport   FRA  1988 M 38 M23  14 7.846 10:27:02 h
42 10:30:04 h   Zeren, Ahmet Trailrunning Turkey   TUR  1980 M 39 M35  13 7.809 10:25:02 h
43 10:31:18 h   Johansen, Frode Bergen Løpeklubb   NOR  1969 M 40 M45  5 7.793 9:40:29 h
44 10:33:23 h   Gorba Albelda, Pau Trail Serra Vernissa   ESP  1987 M 41 M23  15 7.768 10:33:23 h
45 10:35:04 h   Grant, Sophie *London   GBR  1983 W 4 W23  3 7.747 10:33:25 h
46 10:35:19 h   Lynas, Matthew Thames Hare & Hounds   GBR  1967 M 42 M50  1 7.744 9:29:19 h
47 10:40:29 h   Suarez Morales, Nauzet C.D Arista   ESP  1982 M 43 M23  16 7.682 10:38:46 h
48 10:41:00 h   Crespo Aleman, Adonay   ESP  1985 M 44 M23  17 7.676 10:40:53 h
49 10:41:29 h   Chiarani da Silva, Adriano Scyfra Trail Running   BRA  1977 M 45 M35  14 7.670 10:27:38 h
50 10:42:00 h   Perez Suarez, Salvador Gallotia   ESP  1972 M 46 M40  8 7.664 10:05:17 h
51 10:42:24 h   Carre, Pauline *59130   FRA  1987 W 5 W23  4 7.659 10:42:24 h
52 10:45:21 h   Le Roy, Julien Trail de Saint Maudez   FRA  1983 M 47 M23  18 7.624 10:44:39 h
53 10:45:42 h   Cuesta Urbano, Francisco *Madrid   ESP  1984 M 48 M23  19 7.620 10:45:35 h
54 10:46:34 h   Borgersen, Elisabeth *Bekkestua   SWE  1981 W 6 W35  2 7.609 10:39:39 h
55 10:47:05 h   Volkov, Nikolai Berunner   BLR  1989 M 49 M23  20 7.603 10:47:05 h
56 10:48:53 h   Gayangos Pascual, Carlos Laister Villa Agaete   ESP  1973 M 50 M40  9 7.582 10:16:50 h
57 10:51:40 h   Richard, Robin *Berrias   FRA  1989 M 51 M23  21 7.550 10:51:40 h
58 10:56:17 h   Torres Marrero, Ezequiel Tirusamat   ESP  1984 M 52 M23  22 7.497 10:55:34 h
59 10:56:48 h   Prokopenko, Oleksii Enduranceschool   UKR  1974 M 53 M40  10 7.491 10:29:29 h
60 10:59:00 h   Balcar, Marek Kilpi Czech Team   CZE  1979 M 54 M35  15 7.466 10:48:16 h
61 11:02:27 h   Suarez Perez, Miguel Angel *Las Palmas   ESP  1979 M 55 M35  16 7.427 10:54:38 h
62 11:04:42 h   Mendelski, David Speedy S Sport Schart   GER  1982 M 56 M23  23 7.402 11:02:55 h
63 11:04:43 h   Wiechert, Lars *Zug   GER  1984 M 57 M23  24 7.402 11:04:36 h
64 11:05:34 h   Lopes, Alexandre Kudu Brasilian Team   BRA  1973 M 58 M40  11 7.392 10:32:42 h
65 11:05:40 h   Laurent, Julien Team Raidlight / ASA   FRA  1987 M 59 M23  25 7.391 11:05:40 h
66 11:07:59 h   Hämäläinen-Iho, Mira Tytot Tunkkaa Tykimmin   FIN  1979 W 7 W35  3 7.365 10:58:14 h
67 11:09:59 h   Wyss, Thomas *Herzogenbuchsee Be   SUI  1966 M 60 M50  2 7.343 10:00:23 h
68 11:11:57 h   Marrero Tadeo, Gustavo Carphial Solorunners   ESP  1984 M 61 M23  26 7.322 11:11:49 h
69 11:11:58 h   Gonzalez Raymond, Cristobal CD Boleitrai de Teror   ESP  1976 M 62 M40  12 7.322 10:53:30 h
70 11:11:59 h   Gonzalez Abou-Medlej, Marilo CAI GC   ESP  1978 W 8 W35  4 7.322 10:59:05 h
71 11:12:13 h   Mikolajczyk, Tom Trailmonkeys   LUX  1978 M 63 M35  17 7.319 11:01:16 h
72 11:13:01 h   Kusnir, Filip Spartan Patriot Team S...   SVK  1988 M 64 M23  27 7.310 11:13:01 h
73 11:15:00 h   Sanchez Sanchez, Francisco Javier Club de Montaña Castril   ESP  1982 M 65 M23  28 7.289 11:13:11 h
74 11:15:28 h   Larson, Mark Clator 3.7   USA  1986 M 66 M23  29 7.284 11:15:28 h
75 11:16:44 h   Perez Perez, Oliver Fernando Kabrankeros   ESP  1980 M 67 M35  18 7.270 11:11:20 h
76 11:18:22 h   Limberger, Veronika Salewa Store Wien   AUT  1986 W 9 W23  5 7.253 11:18:22 h
77 11:18:29 h   Turif, Jarek Town and Country Harriers   POL  1986 M 68 M23  30 7.251 11:18:29 h
78 11:19:20 h   Eiro, Marc *London   GBR  1984 M 69 M23  31 7.242 11:19:12 h
79 11:19:54 h   Gonzalez Santana, Abian Jose *La Victoria.Tenerife   ESP  1979 M 70 M35  19 7.236 11:11:53 h
80 11:19:55 h   Renevier, Francois Team New Concept Sport...   SUI  1995 M 71 MU23  2 7.236 11:19:55 h
81 11:21:19 h   Amengual Valls, Antoni S'Escapada Trail Team   ESP  1985 M 72 M23  32 7.221 11:21:19 h
82 11:21:51 h   Florit Marcos, David *Ciutadella De Menorca   ESP  1986 M 73 M23  33 7.216 11:21:51 h
83 11:23:01 h   Vuorenpää, Asmo Vuorenpeikot   FIN  1968 M 74 M45  6 7.203 10:22:43 h
84 11:24:27 h   Martos Rubio, Raul EYC Sport   ESP  1979 M 75 M35  20 7.188 11:16:23 h
85 11:25:33 h   Ravani, Laura GS Orecchiella Garfagnana   ITA  1976 W 10 W40  1 7.177 11:04:55 h
86 11:27:08 h   Elorza Trueba, Alberto Arista   ESP  1986 M 76 M23  34 7.160 11:27:08 h
87 11:28:45 h   Carrelero Camp, Sergi GIN Tonic Team   ESP  1987 M 77 M23  35 7.143 11:28:45 h
88 11:29:21 h   Ceballos, Patricio SIN Club   ARG  1980 M 78 M35  21 7.137 11:23:51 h
88 11:29:21 h   Maldan, Laurent *Bragassargues   FRA  1978 M 79 M35  22 7.137 11:18:07 h
90 11:31:26 h   Romero Jimenez, Santiago CM Senglars Favara   ESP  1980 M 80 M35  23 7.116 11:25:55 h
91 11:31:30 h   Santana Perez, Jose Fernando Nortrail   ESP  1979 M 81 M35  24 7.115 11:23:21 h
92 11:31:48 h   Louis, Guillaume Sport Consulting   FRA  1990 M 82 M23  36 7.112 11:31:48 h
93 11:32:25 h   Sanchez, Geoffrey *Lahonce   FRA  1990 M 83 M23  37 7.106 11:32:25 h
94 11:32:26 h   Sanchez, Jean *Biarritz   FRA  1981 M 84 M35  25 7.105 11:28:59 h
95 11:38:57 h   Jimenez Perez, Sergio Vidatrail   ESP  1976 M 85 M40  13 7.039 11:19:44 h
96 11:39:21 h   Diaz Soldevilla, Marta Cafes Toscaf Gmea   ESP  1968 W 11 W45  1 7.035 10:30:33 h
97 11:39:30 h   Pavon Puertas, Leopoldo Harman Trail Running   ESP  1980 M 86 M35  26 7.034 11:33:55 h
98 11:40:26 h   Geurts, Janne *Longstanton, Cambridge   NED  1984 W 12 W23  6 7.024 11:39:40 h
99 11:41:32 h   Rotger Escales, Juan Sebastian Club Esportiu Rovellats   ESP  1988 M 87 M23  38 7.013 11:41:32 h
99 11:41:32 h   Verger Llompart, Daniel Club Esportiu Rovellats   ESP  1987 M 88 M23  39 7.013 11:41:32 h
99 11:41:32 h   Piqueras Morcillo, Sergio Club Esportiu Rovellats   ESP  1983 M 89 M23  40 7.013 11:40:46 h
102 11:42:21 h   Martins, Lara *Goiania   BRA  1977 W 13 W40  2 7.005 11:21:13 h
103 11:42:36 h   Sicilia Roig, Luis Arista   ESP  1978 M 90 M35  27 7.003 11:31:09 h
104 11:43:45 h   Duran Castaneda, Rafael *Barcelona   ESP  1982 M 91 M23  41 6.991 11:41:51 h
105 11:44:19 h   Garceso Camacho, Jose Juan   ESP  1979 M 92 M35  28 6.985 11:32:51 h
106 11:44:31 h   Penkov, Konstantin Clapham Chasers   GBR  1973 M 93 M40  14 6.984 11:09:43 h
107 11:47:31 h   Gonzalo, Castillo Yacan Team   ARG  1988 M 94 M23  42 6.954 11:47:31 h
108 11:48:12 h   Fernandez Lopez, Pablo Corriendo POR Morcin   ESP  1978 M 95 M35  29 6.947 11:36:40 h
109 11:50:12 h   Risa, Svein Ove Undheim IL   NOR  1974 M 96 M40  15 6.928 11:20:40 h
110 11:52:40 h   Guillen Gonzalez, Cristobal *Las Palmas De Gc   ESP  1975 M 97 M40  16 6.904 11:28:18 h
111 11:52:53 h   De Biase, Anna Tornado Trail Running   ITA  1973 W 14 W40  3 6.902 11:16:28 h
112 11:56:45 h   Pastre, Marcel NO   GER  1966 M 98 M50  3 6.864 10:42:17 h
113 11:57:57 h   Vicente Fernandez, Pedro Javier Pink Cows Trail Team   ESP  1967 M 99 M45  7 6.853 10:48:58 h
114 11:58:35 h   Zucka, Andre *Vilvoorde   BEL  1965 M 100 M50  4 6.847 10:38:24 h
115 11:58:49 h   Bussey, Gavin *Paisley   GBR  1974 M 101 M40  17 6.845 11:28:55 h
116 11:59:13 h   McKinley, Marcel *Watford   GBR  1982 M 102 M23  43 6.841 11:57:17 h
117 12:04:18 h   Paz Castro, Arturo C.D. Naraka   ESP  1976 M 103 M40  18 6.793 11:44:23 h
118 12:04:28 h   Väisänen, Matti *Vantaa   FIN  1985 M 104 M23  44 6.791 12:04:28 h
119 12:05:56 h   Karlsson, Markus IF Åland Cursores   FIN  1972 M 105 M40  19 6.777 11:24:25 h
120 12:07:01 h   Toledo Lopez, Jorge Aaron *Las Palmas De Gran Ca...   ESP  1987 M 106 M23  45 6.767 12:07:01 h
121 12:07:17 h   Corral Nolasco, Rafael Bike Time TRI   ESP  1978 M 107 M35  30 6.765 11:55:26 h
122 12:08:36 h   Rogorz, Piotr *Wrocław   POL  1974 M 108 M40  20 6.753 11:38:18 h
123 12:09:32 h   Reus Gelabert, Lorenzo Club Esportiu Rovellats   ESP  1985 M 109 M23  46 6.744 12:09:32 h
124 12:10:52 h   Bustos Jodra, Ivan *Madrid   ESP  1979 M 110 M35  31 6.732 11:58:58 h
125 12:12:03 h   Ortman, Henrik Västerås LK / Bergsult...   SWE  1974 M 111 M40  21 6.721 11:35:54 h
126 12:12:34 h   Clark, Stephen Zurich Athletic   AUS  1985 M 112 M23  47 6.716 12:12:26 h
127 12:13:08 h   Guibbal, Christophe Team Life Experience   FRA  1974 M 113 M40  22 6.711 11:42:39 h
128 12:13:47 h   Rueda Ruiz, Nestor Apuko   ESP  1979 M 114 M35  32 6.705 12:01:50 h
129 12:13:56 h   Lopez Mendoza, Francisco Javier C.D. Montaña Vergara   ESP  1967 M 115 M50  5 6.704 10:57:41 h
130 12:15:28 h   Garcia Santana, Mari Carmen Carucat   ESP  1980 W 15 W35  5 6.690 12:07:36 h
131 12:18:26 h   Game, Gemma *London   GBR  1979 W 16 W35  6 6.663 12:07:40 h
132 12:18:42 h   Dassie, Luca FDT Fedelissimi DI Tonon   ITA  1971 M 117 M45  8 6.660 11:30:42 h
132 12:18:42 h   Nave, Ireno IO STO CON Andrea Tonon   ITA  1970 M 116 M45  9 6.660 11:19:15 h
134 12:18:50 h   Santos Gestal, Luis *Exeter-Devon   ESP  1973 M 118 M40  23 6.659 11:42:21 h
135 12:20:10 h   Bernal Hernandez, Alvaro Salamanca Raids & Trails   ESP  1981 M 119 M35  33 6.647 12:16:28 h
136 12:20:56 h   Papi, Marco *Montemurlo   ITA  1974 M 120 M40  24 6.640 11:44:20 h
136 12:20:56 h   Fiaschi, Marco *Carmignano   ITA  1977 M 121 M35  34 6.640 12:04:56 h
138 12:22:19 h   Matos Dos Santos, Simone *Madrid   BRA  1974 W 17 W40  4 6.628 11:50:02 h
139 12:23:25 h   Mievre, Sebastien *Alby Sur Cheran   FRA  1974 M 122 M40  25 6.618 11:52:30 h
140 12:24:06 h   Lasek, Jakub KW Opole   POL  1990 M 123 M23  48 6.612 12:24:06 h
141 12:24:21 h   Gordillo Silva, Cayetano *Galdar   ESP  1980 M 124 M35  35 6.610 12:15:35 h
142 12:24:27 h   Perez Cabrera, Enrique C.D.Arista   ESP  1977 M 125 M35  36 6.609 12:08:23 h
143 12:25:21 h   Zimmermann, Christoph *Schattdorf   SUI  1972 M 126 M40  26 6.601 11:42:43 h
144 12:27:59 h   Martin Rodriguez, Jose Carlos C.D. B-Sporty   ESP  1982 M 127 M23  49 6.578 12:25:58 h
145 12:28:14 h   Andersen, Kim Trail & Pandelygtesjov   DEN  1980 M 129 M35  37 6.575 12:22:15 h
145 12:28:14 h   Engmark, Morten Trail & Pandelygtesjov   DEN  1971 M 128 M45  10 6.575 11:39:36 h
147 12:28:24 h   Thillien, Morgane S/L AC St Gratien-Sannois   FRA  1989 W 18 W23  7 6.574 12:28:24 h
148 12:30:57 h   Perkins, James *York   GBR  1986 M 130 M23  50 6.552 12:30:57 h
149 12:31:15 h   Dafonte Martinez, Miguel Vigoentrena   ESP  1985 M 131 M23  51 6.549 12:31:06 h
150 12:34:40 h   Ramirez Navarro, Miguel Muévete Running   ESP  1979 M 132 M35  38 6.519 12:25:46 h
151 12:36:44 h   Bogatyrev, Vladimir *Paris   FRA  1970 M 133 M45  11 6.502 11:41:44 h
152 12:37:18 h   Travers, Jean-Michel *Berlin   FRA  1978 M 134 M35  39 6.497 12:24:58 h
153 12:38:20 h   Vavak, Michal Club Deportivo Kutná Hora   CZE  1980 M 135 M35  40 6.488 12:32:16 h
154 12:40:45 h   van Gompel, Mervyn *Antwerpen   BEL  1980 M 136 M35  41 6.467 12:34:40 h
155 12:41:11 h   Garcia Marrero, Jose Luis Clumonfir   ESP  1975 M 137 M40  27 6.464 12:15:10 h
156 12:41:12 h   Delgado Garcia, Eloy Carucat   ESP  1972 M 138 M40  28 6.463 11:57:40 h
157 12:42:19 h   Govea Garcia, Begona Trecus Domingo Aslonso...   ESP  1978 W 19 W35  7 6.454 12:27:41 h
158 12:42:24 h   Ryberg, Tobias Tromsø   NOR  1991 M 139 M23  52 6.453 12:42:24 h
159 12:43:05 h   Ferrer Nicolau, Toni S'Escapada Trail Team   ESP  1995 M 140 MU23  3 6.448 12:43:05 h
160 12:48:27 h   Abreu, Jose Manuel *High Wycombe   POR  1985 M 141 M23  53 6.402 12:48:27 h
161 12:48:28 h   Gonzalez Leon, Jose Manuel C.D.Desnivel   ESP  1980 M 142 M35  42 6.402 12:42:20 h
162 12:48:51 h   Batalha, Claudia Amigos Atletismo Mafra   POR  1976 W 20 W40  5 6.399 12:25:43 h
163 12:48:52 h   Correia Luz, Goncalo Amigos Atletismo Mafra   POR  1978 M 143 M35  43 6.399 12:32:16 h
164 12:48:59 h   Puel, Frederic ASO Sillery   FRA  1981 M 144 M35  44 6.398 12:45:09 h
165 12:50:34 h   Quintana Suarez, Jonatan Personal Running   ESP  1980 M 145 M35  45 6.385 12:41:29 h
166 12:50:50 h   Hernandez Santana, Heriberto Basetrailteam   ESP  1973 M 146 M40  29 6.383 12:12:46 h
167 12:52:53 h   Geraud, Nicolas PAS de Club   FRA  1978 M 147 M35  46 6.366 12:40:18 h
168 12:53:29 h   Verona Garcia, Elias *El Calero   ESP  1988 M 148 M23  54 6.361 12:53:29 h
169 12:54:17 h   Andion de Leon, David Club Alpin Francais   FRA  1979 M 149 M35  47 6.354 12:45:09 h
170 12:54:31 h   Benvenuti, Elisa Rimini Marathon   ITA  1987 W 21 W23  8 6.352 12:54:31 h
171 12:55:08 h   Nedland, Magnar *Trondheim   NOR  1977 M 150 M35  48 6.347 12:38:24 h
172 12:55:11 h   Trundley, Tony Collingwood AC   GBR  1966 M 151 M50  6 6.347 11:34:39 h
173 12:55:57 h   Holgersson, Kajsa AR Collective   SWE  1980 W 22 W35  8 6.341 12:47:39 h
174 12:59:28 h   Pekala, Robert Navigare Necesse EST   POL  1971 M 152 M45  12 6.312 12:02:48 h
175 13:00:05 h   Montelongo Marichal, Tino Cd35600   ESP  1972 M 153 M40  30 6.307 12:15:28 h
176 13:03:49 h   Canadas Gracia, Miguel *Cullar Vega   ESP  1978 M 154 M35  49 6.277 12:51:03 h
177 13:03:50 h   Montesinos Penas, Fernando Saltabalates   ESP  1980 M 155 M35  50 6.277 12:57:34 h
178 13:04:54 h   Alonso Perez, Jose Agustin C.D. Pilancones   ESP  1974 M 156 M40  31 6.268 12:26:08 h
179 13:04:55 h   Perez Vega, Vicente Manuel Arista   ESP  1973 M 157 M40  32 6.268 12:26:09 h
180 13:05:00 h   Bethencourt Gallego, Carlos C.D. Arista   ESP  1978 M 158 M35  51 6.268 12:52:13 h
181 13:06:02 h   Ripper, Beth Black Combe Runners   GBR  1985 W 23 W23  9 6.259 13:05:53 h
182 13:06:32 h   Rychcik-Zygadlo, Edyta *Oleśnica Spalice   POL  1968 W 24 W45  2 6.255 11:49:09 h
183 13:06:44 h   Quintero Hernandez, Francisco Arista   ESP  1973 M 159 M40  33 6.254 12:27:53 h
184 13:07:18 h   Charlier, Pierre *Noisy-Le-Sec   FRA  1984 M 160 M23  55 6.249 13:07:09 h
185 13:08:29 h   Martel Rodriguez, Roberto Gallotia   ESP  1969 M 161 M45  13 6.240 12:05:01 h
186 13:09:10 h   Linares Moreno, Yeray Martin Platano Trail   ESP  1987 M 162 M23  56 6.234 13:09:10 h
187 13:12:19 h   Bergman, Åsa *Fagersta   SWE  1983 W 25 W23  10 6.210 13:08:36 h
188 13:12:20 h   Macias Martel, Daniel C.D. Arista   ESP  1980 M 163 M35  52 6.210 13:06:00 h
189 13:12:25 h   Steinke, Robert *Passau   USA  1966 M 164 M50  7 6.209 11:50:06 h
190 13:12:49 h   Artiles Garcia, Nauzet CD Mafasca Trail   ESP  1980 M 165 M35  53 6.206 13:06:29 h
191 13:12:58 h   Lind, Krister Borlänge LK   SWE  1960 M 166 M55  1 6.205 11:13:38 h
192 13:13:19 h   Lopez, Fran Tenerife Trail   ESP  1973 M 167 M40  34 6.202 12:34:08 h
193 13:15:51 h   Silva, Helena *Rio De Mouro   POR  1968 W 26 W45  3 6.182 11:57:33 h
194 13:18:00 h   Casati, Matteo Scais 3038   ITA  1979 M 168 M35  54 6.165 13:08:36 h
195 13:18:49 h   Vela Del Valle, Ricardo Trideporte   ESP  1957 M 169 M55  2 6.159 10:59:55 h
196 13:19:14 h   Morales Gonzalez, Manuel Jose *Santa Cruz De Tenereife   ESP  1959 M 170 M55  3 6.156 11:12:43 h
197 13:19:28 h   Suarez Santana, Carlos Lucio Piratas Trail   ESP  1970 M 171 M45  14 6.154 12:21:21 h
198 13:22:30 h   Rodriguez Ibanez, David *Las Palmas De Gran Ca...   ESP  1979 M 172 M35  55 6.131 13:13:02 h
199 13:22:31 h   Medina Sanchez, Jehosua *Las Palmas De G.C.   ESP  1986 M 173 M23  57 6.131 13:22:31 h
200 13:23:21 h   Moreno Navarro, Martin *Chur   ESP  1980 M 174 M35  56 6.124 13:16:56 h
201 13:24:04 h   Bittl, Ludwig Spvgg Wellheim   GER  1975 M 175 M40  35 6.119 12:56:35 h
202 13:24:17 h   Leich, Kersten Trailrunningimnorden.DE   GER  1964 M 176 M50  8 6.117 11:48:16 h
203 13:24:50 h   Scott, Paul *York   GBR  1972 M 177 M45  15 6.113 12:32:32 h
204 13:25:28 h   Curnis, Mattia Runners Bergamo   ITA  1980 M 178 M35  57 6.108 13:15:58 h
205 13:26:04 h   Serra Martin, Israel *Barcelona   ESP  1976 M 179 M40  36 6.104 13:03:54 h
206 13:26:12 h   de Leon Ferrer, Alejandro C.D. Naraka   ESP  1975 M 180 M40  37 6.103 12:58:38 h
207 13:29:41 h   Suarez Blanco, Luis GM SAN Bernardo   ESP  1986 M 181 M23  58 6.076 13:29:41 h
208 13:31:12 h   Liepins, Rimants Stirnubuks.Lv / Engure...   LAT  1973 M 182 M40  38 6.065 12:51:08 h
209 13:31:26 h   Coll Cambon, Daniel COR Fort   ESP  1982 M 183 M23  59 6.063 13:29:15 h
210 13:32:29 h   Kohlhund, Andreas SV Söchering   GER  1983 M 184 M23  60 6.056 13:31:36 h
211 13:33:40 h   Ameztoy, Didier Ascain Elgarrekin   FRA  1966 M 185 M50  9 6.047 12:02:52 h
212 13:34:32 h   Gual Feliu, Joan Club Esportiu Rovellats   ESP  1983 M 186 M23  61 6.040 13:32:21 h
213 13:34:33 h   Salva Reda, Francesc Club Esportiu Rovellats   ESP  1987 M 187 M23  62 6.040 13:34:33 h
214 13:34:34 h   Roig Sanchez, Guillermo C.E. Rovellats   ESP  1982 M 188 M23  63 6.040 13:32:23 h
215 13:36:40 h   Saavedra Padron, Jose Ramon Carphial Solorunners   ESP  1975 M 189 M40  39 6.024 13:08:45 h
216 13:36:42 h   Andersen, Johnny Wulff *Hobro   DEN  1978 M 190 M35  58 6.024 13:23:24 h
217 13:36:43 h   Lintermans, Frank *Landen   BEL  1979 M 191 M35  59 6.024 13:27:05 h
218 13:38:17 h   Barbier, Sylvain Intrepide Angers   FRA  1970 M 192 M45  16 6.013 12:38:48 h
219 13:39:24 h   Kirchengast, Roman LG-Apfelland   AUT  1974 M 193 M40  40 6.004 13:05:19 h
220 13:42:09 h   Jozefowicz, Maciej *Kozieglowy   POL  1970 M 194 M45  17 5.984 12:35:59 h
221 13:42:10 h   D'Angelo, Eugenia *Santa Fe   ARG  1983 W 27 W23  11 5.984 13:40:02 h
222 13:42:47 h   Kaivola, Aki Reaktor Askel   FIN  1979 M 195 M35  60 5.980 13:33:05 h
223 13:43:49 h   Castro-Pol Prieto, Miguel Arista   ESP  1979 M 196 M35  61 5.972 13:34:06 h
224 13:44:29 h   Romero Palacio, Ruben Corre CON Nosotros   ESP  1984 M 197 M23  64 5.967 13:44:20 h
225 13:46:59 h   Ranzato, Stefano Galzignano Trail Friends   ITA  1979 M 198 M35  62 5.949 13:37:14 h
226 13:48:15 h   Press, Sandra *Krailling   GER  1976 W 28 W40  6 5.940 13:18:02 h
227 13:48:16 h   Raufer, Mario *Gernsheim   GER  1963 M 199 M50  10 5.940 12:02:55 h
228 13:48:22 h   Acosta Sanchez, Roberto Carlos Veredas A Tauro   ESP  1983 M 200 M23  65 5.939 13:47:28 h
229 13:48:57 h   Martin Toledo, Ismael   ESP  1977 M 201 M35  63 5.935 13:31:03 h
230 13:49:24 h   Santana Perez, Raul Arista   ESP  1980 M 202 M35  64 5.932 13:42:46 h
231 13:55:06 h   Rodriguez Fernandez, David Cafes Toscaf Gmea   ESP  1978 M 203 M35  65 5.892 13:41:30 h
232 13:55:37 h   Morris, David None   GBR  1977 M 204 M35  66 5.888 13:37:35 h
233 13:56:06 h   Dirkx, Wim R.Unbreakable   BEL  1980 M 205 M35  67 5.884 13:49:25 h
233 13:56:06 h   Messelis, Bart R.Unbreakable   BEL  1986 M 206 M23  66 5.884 13:56:06 h
235 13:56:24 h   Nicolau Dora, Gabriel *Llucmajor   ESP  1974 M 207 M40  41 5.882 13:21:37 h
235 13:56:24 h   Barcelo, Malen Club Esportiu Rovellats   ESP  1988 W 29 W23  12 5.882 13:56:24 h
237 13:57:20 h   Castro Suarez, Yeray Jesus   ESP  1981 M 208 M35  68 5.876 13:50:39 h
238 13:57:33 h   Ovalle Perez, Jaime C.D. Saltabalates   ESP  1980 M 209 M35  69 5.874 13:50:51 h
239 13:58:04 h   Santana Marrero, Francisco Blas *Schammamn   ESP  1973 M 210 M40  42 5.871 13:10:08 h
240 13:58:40 h   Lopez Riera, Agustin Alalpardo Running Team   ESP  1965 M 211 M50  11 5.866 12:25:05 h
241 13:58:55 h   Tveitnes, Kristoffer *Finstadjordet   NOR  1981 M 212 M35  70 5.865 13:54:44 h
242 13:59:17 h   Delannoy, Francois Forces Armees EN Guyane   FRA  1980 M 213 M35  71 5.862 13:52:35 h
243 14:00:51 h   Mawson, Alison *York   GBR  1982 W 30 W23  13 5.851 13:56:54 h
243 14:00:51 h   Zielinska, Emila Town and Country Harri...   POL  1984 W 31 W23  14 5.851 13:59:56 h
245 14:02:01 h   Doig, Alan None   GBR  1967 M 214 M45  18 5.843 12:41:06 h
246 14:06:08 h   Deniz Ortega, Davinia C.D. Boletrai de Teror   ESP  1985 W 32 W23  15 5.815 14:05:58 h
247 14:07:50 h   Larsson, Martin Westeros Trail Running...   SWE  1976 M 215 M40  43 5.803 13:44:32 h
248 14:07:52 h   Frutos de Mora, Rafael *Las Palmas De Gran Ca...   ESP  1972 M 216 M40  44 5.803 13:19:23 h
249 14:08:00 h   de la Cruz Pena, Alcides Arista   ESP  1972 M 217 M40  45 5.802 13:19:30 h
250 14:08:03 h   Berco, Iulian WWW.Run4Fun.MD   MDA  1975 M 218 M40  46 5.802 13:32:47 h
251 14:09:23 h   Sierra Lopez, Jose Antonio SA Milana - Alaró   ESP  1975 M 219 M40  47 5.792 13:34:03 h
252 14:10:19 h   Migoya Villasante, Abel *Soto De La Marina   ESP  1974 M 220 M40  48 5.786 13:34:57 h
253 14:12:47 h   Vienola, Antti *Helsinki   FIN  1979 M 221 M35  72 5.769 13:58:53 h
254 14:13:32 h   Marrero Perez, Oscar Luis Arista   ESP  1977 M 222 M35  73 5.764 13:55:06 h
255 14:13:34 h   Bartosiewicz, Adam EOL Extreme Taxes   POL  1977 M 223 M35  74 5.764 13:55:08 h
256 14:13:48 h   Brenac, Nicolas *25660   FRA  1970 M 224 M45  19 5.762 13:11:44 h
257 14:14:14 h   Kieselbach, Berit *Langen   GER  1978 W 33 W35  9 5.760 13:57:50 h
258 14:14:40 h   Alegria Pascual, Rolando Podencos Trail   ESP  1973 M 225 M40  49 5.757 13:32:27 h
259 14:15:06 h   Lopez de Haro Pacheco, Diego *Las Palmas   ESP  1971 M 226 M45  20 5.754 13:19:32 h
260 14:17:32 h   Huillet, Alain *Duebendorf   FRA  1972 M 227 M40  50 5.737 13:28:29 h
261 14:18:00 h   Alamo Peralta, Juan Luis Carucat   ESP  1963 M 228 M50  12 5.734 12:28:52 h
262 14:22:13 h   Miron, Rodica *Iasi   ROU  1975 W 34 W40  7 5.706 13:50:45 h
263 14:22:56 h   Corre, Julie *Geneve   FRA  1990 W 35 W23  16 5.701 14:22:56 h
264 14:23:34 h   Santana Santana, Norberto Bichillorunner   ESP  1977 M 229 M35  75 5.697 14:04:55 h
265 14:23:56 h   Calabuig Belda, Juan Bautista Trivici Team   ESP  1976 M 230 M40  51 5.695 14:00:11 h
266 14:25:21 h   Nunez Rodriguez, Jose Antonio *Palma De Mallorca   ESP  1973 M 231 M40  52 5.686 13:42:37 h
267 14:26:41 h   Fernandez Rodriguez, Israel Jose C.D. Base Tratecan   ESP  1975 M 232 M40  53 5.677 13:57:03 h
268 14:27:49 h   Mäkelä, Tiina Pori Trail Runners   FIN  1983 W 36 W23  17 5.669 14:25:34 h
269 14:28:15 h   Caso Garcia, Hugo Gurriana Trail   ESP  1981 M 233 M35  76 5.667 14:23:55 h
270 14:31:31 h   Aure, Loic *Canjuers   FRA  1990 M 234 M23  67 5.645 14:31:31 h
271 14:31:56 h   Gonzalez Rodriguez, Francisco Ismael C.D. Arista   ESP  1987 M 235 M23  68 5.643 14:31:56 h
272 14:33:43 h   Bordon Sardina, Jose Kabrankeros   ESP  1987 M 236 M23  69 5.631 14:33:43 h
273 14:33:57 h   Blaha, Martin Skk74   CZE  1972 M 237 M40  54 5.630 13:43:58 h
274 14:35:25 h   Macaud, Audrey *Touques   FRA  1974 W 37 W40  8 5.620 13:57:21 h
275 14:35:43 h   Ducerf, Franck-Cesar *Chamonix   FRA  1965 M 238 M50  13 5.618 12:58:00 h
276 14:36:04 h   Cruz Hernandez, Juan Manuel Tolisco   ESP  1967 M 239 M45  21 5.616 13:11:53 h
277 14:36:37 h   Sany, Wilfried Team Ozarm   FRA  1981 M 240 M35  77 5.612 14:32:15 h
278 14:37:04 h   Garcia Rodriguez, Jose Carlos Club Triatlon LAS Rozas   ESP  1975 M 241 M40  55 5.610 14:07:05 h
279 14:39:01 h   Aussenac, Philippe Orteil EN Pointe   FRA  1965 M 242 M50  14 5.597 12:54:04 h
280 14:40:58 h   Sainz de Murieta, Ibon *Erandio   ESP  1978 M 243 M35  78 5.585 14:26:37 h
281 14:41:19 h   Cabrera Ramirez, Lidia Carucat   ESP  1974 W 38 W40  9 5.583 13:56:17 h
282 14:41:28 h   Fernandez Mateo, Jordi Paleo Nomads Mataró   ESP  1983 M 244 M23  70 5.582 14:40:30 h
283 14:42:39 h   Behrens, Daniel *Boulogne-Billancourt   ARG  1974 M 245 M40  56 5.574 14:05:56 h
284 14:43:14 h   Martinez Chantada, Gonzalo C.D. Bichillorunner Ca...   ESP  1962 M 246 M50  15 5.570 12:44:00 h
285 14:43:49 h   Zondervan, Ruben Andreas Pace ON Earth   NED  1978 M 247 M35  79 5.567 14:29:25 h
286 14:43:50 h   Meneghetti, Filippo Vulcano Vertical   ESP  1977 M 248 M35  80 5.567 14:24:45 h
287 14:44:00 h   Diaz Rodriquez, Alberto C.D.Arista   ESP  1971 M 249 M45  22 5.566 13:46:33 h
288 14:45:23 h   Dominguez Deniz, Cristian *Teror   ESP  1994 M 250 MU23  4 5.557 14:45:23 h
289 14:46:55 h   Minder, Brigitte *Thunstetten   SUI  1971 W 39 W45  4 5.547 13:38:01 h
290 14:50:19 h   Reichle, Herbert LT Radolfzell   GER  1957 M 251 M55  4 5.526 12:15:30 h
291 14:51:46 h   Jost, Claude *Strasbourg   FRA  1965 M 252 M50  16 5.517 13:05:18 h
292 14:52:55 h   Robles Anton, Noelia Arista   ESP  1981 W 40 W35  10 5.510 14:46:19 h
293 14:54:22 h   El Fellah, Amine *Maly Le Roi   FRA  1983 M 253 M23  71 5.501 14:53:23 h
294 14:54:33 h   Baliko, Nellija *Riga   LAT  1980 W 41 W35  11 5.500 14:44:59 h
295 14:55:37 h   Rodriguez Diepa, Irene C.D. Base Tratecan   ESP  1984 W 42 W23  18 5.493 14:54:38 h
296 14:59:51 h   Rivero Santana, Angel Asoc. C.M. Moyactiva   ESP  1965 M 254 M50  17 5.468 13:12:25 h
297 15:01:10 h   Diaz Santos, Hilario Gallotia   ESP  1973 M 255 M40  57 5.460 14:16:39 h
298 15:04:21 h   Navarro Batista, Valentin *Teror   ESP  1977 M 256 M35  81 5.440 14:44:49 h
299 15:08:27 h   Blazquez Segura, Ruben Miguel *Lorca   ESP  1989 M 257 M23  72 5.416 15:08:27 h
300 15:09:09 h   Sosa Garcia, Francisco C.D. Rungosay   ESP  1963 M 258 M50  18 5.412 13:06:25 h
301 15:15:07 h   Rodriguez Gonzalez, David *Gijon   ESP  1977 M 259 M35  82 5.376 14:55:22 h
301 15:15:07 h   Olmedillas Fernandez, Hugo *Gijón   ESP  1975 M 260 M40  58 5.376 14:43:50 h
303 15:16:50 h   Capelli, Alessandro Atletica Presezzo   ITA  1972 M 261 M45  23 5.366 14:17:15 h
304 15:20:34 h   Scheida, Guntram *Borna   GER  1960 M 262 M55  5 5.345 13:02:02 h
305 15:21:19 h   Hierro Gordillo, Francisco Javier *Palma De Mallorca   ESP  1981 M 263 M35  83 5.340 15:16:43 h
306 15:21:20 h   Romero Fuentes, Ismael *Palma De Mallorca   ESP  1977 M 264 M35  84 5.340 15:01:26 h
307 15:21:22 h   Sandor, Andrei *Timisoara   ROU  1968 M 265 M45  24 5.340 14:00:01 h
308 15:21:54 h   Pinault, Florent *London   FRA  1973 M 266 M40  59 5.337 14:36:22 h
309 15:22:13 h   Alonso Fierro, Estrella Club Astorga Running   ESP  1962 W 43 W55  1 5.335 12:40:28 h
310 15:23:13 h   Estrada Montes, Olvido Ludo Aventura   ESP  1968 W 44 W45  5 5.329 13:52:23 h
311 15:27:20 h   Lembezat, Yannick Ebpne   FRA  1974 M 267 M40  60 5.306 14:48:46 h
312 15:33:00 h   Marrero Santana, Juan Carlos Arista   ESP  1967 M 268 M45  25 5.273 14:03:21 h
313 15:33:23 h   Garabuau, Benoit *Gaillac   FRA  1977 M 269 M35  85 5.271 15:13:14 h
314 15:33:36 h   Vicente Martin, David Team OP   ESP  1978 M 270 M35  86 5.270 15:18:23 h
315 15:33:40 h   Sanchez Garcia, Rafael *São Paulo   BRA  1949 M 271 M65  1 5.270 11:53:14 h
316 15:34:34 h   Coma Arnau, Cristian Monistrol Running   ESP  1972 M 272 M40  61 5.264 14:41:07 h
317 15:36:07 h   Serdiuk, Serhii *Basel   UKR  1986 M 273 M23  73 5.256 15:36:07 h
318 15:36:47 h   Chan, Sher Mayne Clapham Chasers   MAS  1988 W 45 W23  19 5.252 15:36:47 h
319 15:37:58 h   Vidiella, Andres Videl´S   ESP  1936 M 274 M80  1 5.245 9:48:46 h
320 15:38:00 h   Alves, Nelson *High Wycombe   POR  1986 M 275 M23  74 5.245 15:38:00 h
320 15:38:00 h   Gargano, Nicola Verona Trail Runners   ITA  1969 M 276 M45  26 5.245 14:15:11 h
322 15:40:25 h   Standke, Annie B-Sporty   GER  1983 W 46 W23  20 5.232 15:37:59 h
323 15:41:17 h   Ignatowska, Justyna Sezonstartowy.PL   POL  1982 W 47 W23  21 5.227 15:36:52 h
324 15:41:22 h   Del Toro Goyanes, Jose Manuel *Las Palmas De G.C.   ESP  1983 M 277 M23  75 5.226 15:40:20 h
325 15:41:43 h   Oliveira Gomes, Alexandre C.D.Rungosay   POR  1973 M 278 M40  62 5.225 14:47:52 h
326 15:42:46 h   Romana Rodriguez, Jose Ramon Club de Montaña Ganerantz   ESP  1950 M 279 M65  2 5.219 12:07:32 h
327 15:43:04 h   Jurkiewicz, Anna Clapham Chasers   GBR  1977 W 48 W35  12 5.217 15:20:10 h
328 15:44:09 h   Bennasar Krausch, Miguel Pascual Club Triatló Portocolom   ESP  1978 M 280 M35  87 5.211 15:28:46 h
329 15:46:32 h   Santana Rivero, Saul C.D. Boletrai de Teror   ESP  1988 M 281 M23  76 5.198 15:46:32 h
330 15:46:37 h   Gonzalez Arencibia, Saulo C.D. Boletrai de Teror   ESP  1988 M 282 M23  77 5.197 15:46:37 h
331 15:46:40 h   Pichon, Philippe *Hendaye   FRA  1967 M 283 M45  27 5.197 14:15:42 h
332 15:46:45 h   Zortea, Raissa *Porto Alegre   BRA  1987 W 49 W23  22 5.197 15:46:45 h
333 15:47:14 h   Runvall, Jonas *Malmö   SWE  1981 M 284 M35  88 5.194 15:42:30 h
334 15:49:53 h   Almeida, Gustavo *Las Palmas   ESP  1972 M 285 M40  63 5.180 14:55:34 h
335 15:55:37 h   Ousager, Simon *Copenhagen   DEN  1986 M 286 M23  78 5.149 15:55:37 h
336 15:58:30 h   Kuzmin, Anton *London   GBR  1979 M 287 M35  89 5.133 15:47:12 h
336 15:58:30 h   Fedulov, Anton *Podolsk   ESP  1977 M 288 M35  90 5.133 15:37:48 h
338 16:01:08 h   Reina, Yuval Summit   ISR  1967 M 289 M45  28 5.119 14:28:47 h
339 16:01:54 h   Put, Willem NO Club   BEL  1991 M 290 M23  79 5.115 16:01:54 h
340 16:03:30 h   Eder, Stephan SBK-GCH   GER  1964 M 291 M50  19 5.106 14:08:28 h
341 16:04:38 h   Kovero, Juha-Pekka Helsinki Trail Running...   FIN  1968 M 292 M45  29 5.100 14:39:28 h
342 16:04:46 h   Franco Miranda, Rafael C.D. Vantrail   ESP  1970 M 293 M45  30 5.100 14:54:38 h
343 16:07:01 h   Porcel Parrilla, Andres C..A . Cuatro Caminos   ESP  1971 M 294 M45  31 5.088 15:04:10 h
344 16:12:11 h   Scotton, Francesco Sono UN Pensionato Ami...   ITA  1958 M 295 M55  6 5.061 13:30:43 h
345 16:13:11 h   Culot, Lionel *Bruxelles   BEL  1980 M 296 M35  91 5.056 16:05:24 h
346 16:13:46 h   Mathijssen, Bastian *Zonnemaire   NED  1971 M 297 M45  32 5.053 15:02:59 h
346 16:13:46 h   van Bockxmeer, Birgit *Zonnemaire   NED  1975 W 50 W40  10 5.053 15:38:14 h
348 16:16:21 h   Igesund, Cecilie Longva Romerike Ultraløperklubb   NOR  1976 W 51 W40  11 5.039 15:46:58 h
349 16:17:21 h   Dempsey, Andrew East OF Ireland Marath...   IRL  1961 M 298 M55  7 5.034 13:57:48 h
349 16:17:21 h   Lawton, Richard None   GBR  1965 M 299 M50  20 5.034 14:28:17 h
351 16:26:33 h   Cornamusaz, Sebastien *St-Légier   SUI  1978 M 300 M35  92 4.987 16:05:15 h
352 16:30:53 h   Meeussen, Koen *St Job In'T Goor   BEL  1981 M 301 M35  93 4.965 16:25:56 h
353 16:30:54 h   Cabrera Socorro, Manuel Pa´Ante   ESP  1973 M 302 M40  64 4.965 15:41:57 h
353 16:30:54 h   Cabrera Socorro, Alfredo *Stabroek   ESP  1977 M 303 M40  65 4.965 16:03:40 h
355 16:31:10 h   Straume, Ildze *Dzilnuciems, Babites ...   LAT  1974 W 52 W40  12 4.964 15:48:04 h
356 16:31:34 h   Mena Rodriguez, Francisco Javier Arista   ESP  1964 M 304 M50  21 4.962 14:33:11 h
357 16:32:48 h   Bouju, Pascal *Paris   FRA  1961 M 305 M55  8 4.956 14:11:02 h
358 16:33:11 h   Vinoly Abreu, Ricardo Tripto   ESP  1970 M 306 M45  33 4.954 15:20:59 h
359 16:33:42 h   Climent Verdeny, Marti Societata Amics de la ...   ESP  1977 M 307 M35  94 4.951 16:12:15 h
360 16:38:15 h   Hendrickx, Harrie AV Sprint Breda   NED  1955 M 308 M60  1 4.929 13:29:11 h
361 16:38:46 h   Wierick, Mario Runster.DE   GER  1969 M 309 M45  34 4.926 15:18:22 h
361 16:38:46 h   Stork, Martin *Vienna   GER  1980 M 310 M35  95 4.926 16:30:47 h
363 16:38:49 h   Gaudin, Pierre-Alexandre *Vannes   FRA  1990 M 311 M23  80 4.926 16:38:49 h
364 16:41:45 h   Souto Bethencourt, Isidoro Zanata Sauzal   ESP  1969 M 312 M45  35 4.911 15:21:07 h
365 16:42:08 h   Mickley, Thomas *Salzatal   GER  1972 M 314 M40  66 4.910 15:44:49 h
365 16:42:08 h   Surhoff, Morten *Binnen   GER  1976 M 313 M40  67 4.910 16:14:35 h
367 16:47:28 h   Dordan, Carine *Perpignan   FRA  1973 W 53 W40  13 4.884 15:56:00 h
368 16:47:29 h   Bourlier, Christophe *Perpignan   FRA  1973 M 315 M40  68 4.883 15:57:43 h
369 16:48:48 h   Suarez Viera, Ricardo Damteam   ESP  1988 M 316 M23  81 4.877 16:48:48 h
370 16:54:29 h   Willhelmi, Alexandra C. D. Arista   GER  1976 W 54 W40  14 4.850 16:23:57 h
371 16:55:06 h   Nunez Martin, Jorge *Toledo   ESP  1971 M 317 M45  36 4.847 15:49:08 h
372 17:02:26 h   Luis Reveron, Juan Pedro Platano Trail   ESP  1986 M 318 M23  82 4.812 17:02:26 h
373 17:02:29 h   Perez Hernandez, Victor Manuel Platano Trail   ESP  1971 M 319 M45  37 4.812 15:56:02 h
374 17:08:49 h   Geiger, Stephanie *Tomerdingen   GER  1983 W 55 W23  23 4.782 17:06:09 h
375 17:09:00 h   Nunez Ramos, Maria del Pino Tolisco   ESP  1974 W 56 W40  15 4.781 16:24:15 h
376 17:11:04 h   Heffron, Noanie *Kilbarchan   GBR  1973 W 57 W40  16 4.772 16:18:23 h
377 17:14:20 h   Wall, William Harlow Running Club   GBR  1979 M 320 M35  96 4.757 17:02:08 h
378 17:14:54 h   van der Vrecken, Olivier LA Thure   BEL  1968 M 321 M45  38 4.754 15:43:32 h
379 17:15:08 h   Lindes Torres, Jorge Arista   ESP  1975 M 322 M40  69 4.753 16:39:44 h
380 17:16:08 h   Grondal, Jorgen *Røyken   NOR  1987 M 323 M23  83 4.748 17:16:08 h
381 17:16:56 h   Perez Pastor, Javier KM3 Xativa   ESP  1983 M 324 M23  84 4.745 17:14:09 h
382 17:21:00 h   Patel, Shamir Clapham Chasers   GBR  1967 M 325 M50  22 4.726 15:32:51 h
383 17:22:31 h   Ramos Reyes, Jonathan C.D.De Montaña Tegda   ESP  1984 M 326 M23  85 4.719 17:21:23 h
384 17:29:23 h   Reyes Ortega, Sabi C.D. Arista   ESP  1967 M 327 M45  39 4.688 15:48:33 h
385 17:29:37 h   Strzebinczyk, Agnes Time4Running   GER  1975 W 58 W40  17 4.687 16:43:58 h
386 17:29:39 h   Strzebinczyk, Adam Time4Running   GER  1971 M 328 M45  40 4.687 16:21:26 h
387 17:31:01 h   Coca Velasco, Alberto *Madrid   ESP  1988 M 329 M23  86 4.681 17:31:01 h
388 17:32:17 h   Longueira, Juan *La Chaux-De-Fonds   ESP  1963 M 330 M50  23 4.676 15:18:26 h
389 17:33:28 h   Gonzalez Leon, Orlando Fecamon (C.D. Podenc@S...   ESP  1969 M 331 M45  41 4.670 16:08:40 h
390 17:35:49 h   Dominguez Quintana, Carlos Arista   ESP  1969 M 332 M45  42 4.660 16:10:50 h
391 17:37:04 h   Capote Kerr, Esther CD Agaeterun   ESP  1984 W 59 W23  24 4.654 17:35:55 h
392 17:37:15 h   Hernandez Perez, Jose Manuel Arista   ESP  1971 M 333 M45  43 4.654 16:28:32 h
393 17:40:04 h   Clemenceau, Celine *Englos   FRA  1979 W 60 W35  13 4.641 17:24:36 h
394 17:41:09 h   Cassiers, Michel Brasschaat Triathlon Club   BEL  1959 M 334 M55  9 4.636 14:53:11 h
395 17:41:13 h   Castano, Francisco Raid Aventure   FRA  1959 M 335 M55  10 4.636 14:53:14 h
396 17:44:12 h   Suarez Espino, Christian *Moya   ESP  1979 M 336 M35  97 4.623 17:31:39 h
397 17:44:27 h   Yamaya, Takao   JPN  1958 M 337 M55  11 4.622 14:39:21 h
398 17:45:06 h   Raimond, Patrick LA Petite Foulee   FRA  1959 M 338 M55  12 4.619 14:48:12 h
399 17:50:16 h   Atxutegi Urgoiti, Joseba Andoni Zornotza Menditaldea   ESP  1964 M 339 M50  24 4.597 15:34:08 h
400 17:50:34 h   Balao, Xavier Sauvagnon 64   FRA  1972 M 340 M40  70 4.596 16:49:20 h
401 17:51:17 h   Wingky, Mochammad Faisal Mpcb   INA  1964 M 341 M50  25 4.593 15:43:23 h
402 17:53:08 h   Salceda Sanchez, Antonio-German Club Natacio Terrassa ...   ESP  1956 M 342 M60  2 4.585 14:38:09 h
403 17:54:45 h   Louis, Patricia *Betton   FRA  1965 W 61 W50  1 4.578 15:21:43 h
404 17:56:07 h   Fernandez, Agustin *El Rosario   ESP  1962 M 343 M50  26 4.572 15:30:51 h
405 17:57:37 h   Shenhav, Tom *Tel Aviv   ISR  1982 M 344 M35  98 4.566 17:52:14 h
406 18:03:01 h   Prieto Vielba, Luis C.D. B-Sporty   ESP  1980 M 346 M35  99 4.543 17:54:22 h
406 18:03:01 h   Jimenez Jimenez, Jose Aday Agaeterun   ESP  1992 M 345 M23  87 4.543 18:03:01 h
408 18:03:02 h   Rodriguez Falcon, Nataniel Club Carphial Solorunn...   ESP  1981 M 347 M35  100 4.543 17:57:38 h
409 18:03:37 h   Santana Aleman, Tino Activat   ESP  1975 M 348 M40  71 4.540 17:18:33 h
410 18:03:39 h   Cruz Quintana, Ismael C.D.Atlefulca   ESP  1986 M 349 M23  88 4.540 18:03:39 h
411 18:03:47 h   Medina Cabrera, Daniel CD Atlefulca   ESP  1986 M 350 M23  89 4.540 18:03:47 h
412 18:04:57 h   Benitez Taular, Sofia Arista   ESP  1962 W 62 W50  2 4.535 15:06:36 h
413 18:05:14 h   van Bourgogne, Sophie *Saint Aubin Du Pavail   FRA  1975 W 63 W40  18 4.534 17:25:38 h
414 18:12:10 h   Campbell, Barb *Palgrave   CAN  1960 W 64 W55  2 4.505 14:48:36 h
415 18:13:22 h   Cebreiros Iglesias, Sira A.D. Limiactiva   ESP  1986 W 65 W23  25 4.500 18:13:22 h
416 18:18:36 h   Basty, Monique Asptt Toulouse   FRA  1953 W 66 W60  1 4.478 13:29:14 h
416 18:18:36 h   Basty, Alain Asptt Toulouse   FRA  1956 M 351 M60  3 4.478 14:59:00 h
418 18:20:47 h   Müller, Uwe KSV Döbeln   GER  1970 M 352 M45  44 4.470 17:00:46 h
418 18:20:47 h   Biedermann, Grit *Döbeln   GER  1974 W 67 W40  19 4.470 17:32:54 h
420 18:24:21 h   Helgesen, Tormod Team ULL   NOR  1971 M 353 M45  45 4.455 17:12:35 h
421 18:33:08 h   Valsecchi, Pierino *Lecco   ITA  1955 M 354 M60  4 4.420 15:02:19 h
422 18:34:48 h   Nilsson, Eva Lotta Team Cheetah   SWE  1965 W 68 W50  3 4.413 16:08:19 h
423 18:35:16 h   Magana Noguera, Daniel SOS Cardio Sport   ESP  1971 M 355 M45  46 4.412 17:22:47 h
423 18:35:16 h   Mancera Carnero, Maria Victoria Bikila Málaga   ESP  1976 W 69 W40  20 4.412 18:01:42 h
425 18:35:34 h   Mateo Requena, Artemi *Las Palmas   ESP  1976 M 356 M40  72 4.410 18:04:54 h
426 18:50:36 h   Gomez Garcia, Ivan *Gijon   ESP  1981 M 357 M35  101 4.352 18:41:34 h
427 19:01:05 h   Poirier, Patrick *Puisieulx   FRA  1953 M 358 M60  5 4.312 15:07:10 h
428 19:29:06 h   Szendrodi, Andras *Budapest   HUN  1965 M 359 M50  27 4.208 17:18:38 h
429 19:30:21 h   Saari, Hannu Tampere Trail Running   FIN  1982 M 360 M23  90 4.204 19:27:12 h
430 19:31:48 h   Neufend, Klaus LSF Münster   GER  1961 M 361 M55  13 4.199 16:44:29 h
431 19:33:10 h   Kergozou, Patrick PAS Presses   FRA  1959 M 362 M55  14 4.194 16:27:28 h
432 19:41:35 h   Cazorla, Carla *Berisso   ARG  1975 W 70 W40  21 4.164 18:58:28 h
433 19:49:18 h   Bidet, Jean-Noel *Tremblay-En-France   FRA  1970 M 363 M45  47 4.137 18:22:51 h
434 20:07:00 h   Laurencik, Susanna *Meudon   SVK  1984 W 71 W23  26 4.076 20:05:41 h
435 20:15:18 h   Chutry, Stephanie *Paris   FRA  1972 W 72 W40  22 4.048 19:03:07 h
436 20:23:02 h   Cheng, Victor China Ultra 100   CHN  1984 M 364 M23  91 4.023 20:22:48 h
437 20:32:25 h   Jimenez Del Campo Rodriguez, Luis *Telde   ESP  1963 M 365 M50  28 3.992 17:55:40 h
438 20:37:11 h   Schipper, Jacob D. ATC'75   NED  1948 M 366 M65  3 3.977 15:35:27 h
439 20:50:35 h   Brondeau, Veronique *Carcassonne   FRA  1971 W 73 W45  6 3.934 19:13:25 h
440 21:15:12 h   Reilly, Alexander *Dublin   IRL  1979 M 367 M35  102 3.858 21:00:10 h